Time,TemperatureF,DewpointF,PressureIn,WindDirection,WindDirectionDegrees,WindSpeedMPH,WindSpeedGustMPH,Humidity,HourlyPrecipIn,Conditions,Clouds,dailyrainin,SoftwareType,DateUTC
2013-01-18 00:00:00,28.0,24.4,30.48,ENE,77,0.0,0.0,86,0.00,,,0.00,VWS V15.00,2013-01-18 06:00:00,
2013-01-18 00:03:00,28.0,24.4,30.48,ENE,78,0.0,0.0,86,0.00,,,0.00,VWS V14.01,2013-01-18 06:03:00,
2013-01-18 00:08:00,28.1,24.5,30.49,ENE,77,0.0,0.0,86,0.00,,,0.00,VWS V14.01,2013-01-18 06:08:00,
2013-01-18 00:13:00,28.2,24.6,30.49,ENE,78,0.0,0.0,86,0.00,,,0.00,VWS V14.01,2013-01-18 06:13:00,
2013-01-18 00:18:00,28.3,24.7,30.49,ENE,78,0.0,0.0,86,0.00,,,0.00,VWS V14.01,2013-01-18 06:18:00,
2013-01-18 00:23:00,28.4,24.8,30.49,ENE,77,0.0,0.0,86,0.00,,,0.00,VWS V14.01,2013-01-18 06:23:00,
2013-01-18 00:28:00,28.4,24.5,30.49,East,86,0.0,0.0,85,0.00,,,0.00,VWS V14.01,2013-01-18 06:28:00,
2013-01-18 00:33:00,28.4,24.5,30.49,East,86,0.0,0.0,85,0.00,,,0.00,VWS V14.01,2013-01-18 06:33:00,
2013-01-18 00:38:00,28.3,24.4,30.49,East,86,0.0,0.0,85,0.00,,,0.00,VWS V14.01,2013-01-18 06:38:00,
2013-01-18 00:43:00,28.1,24.2,30.50,East,86,0.0,0.0,85,0.00,,,0.00,VWS V14.01,2013-01-18 06:43:00,
2013-01-18 00:48:00,28.1,24.5,30.49,East,86,0.0,0.0,86,0.00,,,0.00,VWS V14.01,2013-01-18 06:48:00,
2013-01-18 00:53:00,28.1,24.5,30.50,East,86,0.0,0.0,86,0.00,,,0.00,VWS V14.01,2013-01-18 06:53:00,
2013-01-18 00:58:00,28.0,24.4,30.50,East,86,0.0,0.0,86,0.00,,,0.00,VWS V14.01,2013-01-18 06:58:00,
2013-01-18 01:00:00,26.7,23.9,30.50,East,86,0.0,0.0,89,0.00,,,0.00,VWS V14.01,2013-01-18 07:00:00,
2013-01-18 01:03:00,27.8,24.4,30.50,East,86,0.0,0.0,87,0.00,,,0.00,VWS V14.01,2013-01-18 07:03:00,
2013-01-18 01:08:00,28.0,24.4,30.50,East,86,0.0,0.0,86,0.00,,,0.00,VWS V14.01,2013-01-18 07:08:00,
2013-01-18 01:13:00,28.0,24.1,30.50,East,86,0.0,0.0,85,0.00,,,0.00,VWS V14.01,2013-01-18 07:13:00,
2013-01-18 01:18:00,27.6,24.0,30.50,East,86,0.0,0.0,86,0.00,,,0.00,VWS V14.01,2013-01-18 07:18:00,
2013-01-18 01:23:00,27.3,23.7,30.50,East,86,0.0,0.0,86,0.00,,,0.00,VWS V14.01,2013-01-18 07:23:00,
2013-01-18 01:28:00,26.9,23.6,30.50,East,86,0.0,0.0,87,0.00,,,0.00,VWS V14.01,2013-01-18 07:28:00,
2013-01-18 01:33:00,26.5,23.7,30.50,East,86,0.0,0.0,89,0.00,,,0.00,VWS V14.01,2013-01-18 07:33:00,
2013-01-18 01:38:00,26.3,23.2,30.50,East,86,0.0,0.0,88,0.00,,,0.00,VWS V14.01,2013-01-18 07:38:00,
2013-01-18 01:43:00,26.5,23.7,30.50,East,86,0.0,0.0,89,0.00,,,0.00,VWS V14.01,2013-01-18 07:43:00,
2013-01-18 01:48:00,26.4,23.6,30.50,East,86,0.0,0.0,89,0.00,,,0.00,VWS V14.01,2013-01-18 07:48:00,
2013-01-18 01:53:00,26.5,23.7,30.50,East,86,0.0,0.0,89,0.00,,,0.00,VWS V14.01,2013-01-18 07:53:00,
2013-01-18 01:58:00,26.7,23.9,30.50,East,86,0.0,0.0,89,0.00,,,0.00,VWS V14.01,2013-01-18 07:58:00,
2013-01-18 02:00:00,26.7,23.9,30.50,East,86,0.0,0.0,89,0.00,,,0.00,VWS V15.00,2013-01-18 08:00:00,
2013-01-18 02:03:00,26.5,23.4,30.50,East,86,0.0,0.0,88,0.00,,,0.00,VWS V14.01,2013-01-18 08:03:00,
2013-01-18 02:08:00,26.2,23.1,30.50,East,86,0.0,0.0,88,0.00,,,0.00,VWS V14.01,2013-01-18 08:08:00,
2013-01-18 02:13:00,25.9,23.1,30.50,East,86,0.0,0.0,89,0.00,,,0.00,VWS V14.01,2013-01-18 08:13:00,
2013-01-18 02:18:00,25.8,23.0,30.50,East,86,0.0,0.0,89,0.00,,,0.00,VWS V14.01,2013-01-18 08:18:00,
2013-01-18 02:23:00,25.5,22.7,30.50,East,86,0.0,0.0,89,0.00,,,0.00,VWS V14.01,2013-01-18 08:23:00,
2013-01-18 02:28:00,25.2,22.7,30.50,East,86,0.0,0.0,90,0.00,,,0.00,VWS V14.01,2013-01-18 08:28:00,
2013-01-18 02:33:00,25.3,23.0,30.50,East,86,0.0,0.0,91,0.00,,,0.00,VWS V14.01,2013-01-18 08:33:00,
2013-01-18 02:38:00,25.4,23.1,30.50,East,86,0.0,0.0,91,0.00,,,0.00,VWS V14.01,2013-01-18 08:38:00,
2013-01-18 02:43:00,25.4,23.1,30.50,East,86,0.0,0.0,91,0.00,,,0.00,VWS V14.01,2013-01-18 08:43:00,
2013-01-18 02:48:00,25.5,23.2,30.50,East,86,0.0,0.0,91,0.00,,,0.00,VWS V14.01,2013-01-18 08:48:00,
2013-01-18 02:53:00,25.7,23.4,30.50,East,86,0.0,0.0,91,0.00,,,0.00,VWS V14.01,2013-01-18 08:53:00,
2013-01-18 02:58:00,25.9,23.4,30.50,East,86,0.0,0.0,90,0.00,,,0.00,VWS V14.01,2013-01-18 08:58:00,
2013-01-18 03:00:00,26.9,23.8,30.48,SSE,156,0.0,1.0,88,0.00,,,0.00,VWS V14.01,2013-01-18 09:00:00,
2013-01-18 03:03:00,26.0,23.5,30.49,East,86,0.0,0.0,90,0.00,,,0.00,VWS V14.01,2013-01-18 09:03:00,
2013-01-18 03:08:00,26.2,23.4,30.49,SSE,156,0.0,0.0,89,0.00,,,0.00,VWS V14.01,2013-01-18 09:08:00,
2013-01-18 03:13:00,26.4,23.6,30.49,SSE,156,0.0,0.0,89,0.00,,,0.00,VWS V14.01,2013-01-18 09:13:00,
2013-01-18 03:18:00,26.3,23.5,30.49,SSE,157,0.0,0.0,89,0.00,,,0.00,VWS V14.01,2013-01-18 09:18:00,
2013-01-18 03:23:00,26.2,23.4,30.49,SSE,156,0.0,0.0,89,0.00,,,0.00,VWS V14.01,2013-01-18 09:23:00,
2013-01-18 03:28:00,26.2,23.4,30.48,SSE,156,0.0,0.0,89,0.00,,,0.00,VWS V14.01,2013-01-18 09:28:00,
2013-01-18 03:33:00,26.3,23.5,30.49,SSE,157,0.0,0.0,89,0.00,,,0.00,VWS V14.01,2013-01-18 09:33:00,
2013-01-18 03:38:00,26.4,23.6,30.48,SSE,156,0.0,0.0,89,0.00,,,0.00,VWS V14.01,2013-01-18 09:38:00,
2013-01-18 03:43:00,26.5,23.7,30.48,SSE,156,0.0,0.0,89,0.00,,,0.00,VWS V14.01,2013-01-18 09:43:00,
2013-01-18 03:48:00,26.6,23.8,30.48,SSE,150,0.0,1.0,89,0.00,,,0.00,VWS V14.01,2013-01-18 09:48:00,
2013-01-18 03:53:00,26.7,23.9,30.48,SSE,150,0.0,1.0,89,0.00,,,0.00,VWS V14.01,2013-01-18 09:53:00,
2013-01-18 03:58:00,26.9,23.8,30.48,SSE,157,0.0,1.0,88,0.00,,,0.00,VWS V14.01,2013-01-18 09:58:00,
2013-01-18 04:00:00,26.9,23.8,30.48,SSE,156,0.0,1.0,88,0.00,,,0.00,VWS V15.00,2013-01-18 10:00:00,
2013-01-18 04:03:00,27.1,24.0,30.47,SSE,157,0.0,2.0,88,0.00,,,0.00,VWS V14.01,2013-01-18 10:03:00,
2013-01-18 04:08:00,27.3,24.2,30.47,SSE,156,0.0,2.0,88,0.00,,,0.00,VWS V14.01,2013-01-18 10:08:00,
2013-01-18 04:13:00,27.5,24.4,30.47,SW,218,3.0,3.0,88,0.00,,,0.00,VWS V14.01,2013-01-18 10:13:00,
2013-01-18 04:18:00,27.7,24.3,30.47,SE,138,0.0,2.0,87,0.00,,,0.00,VWS V14.01,2013-01-18 10:18:00,
2013-01-18 04:23:00,27.8,24.4,30.47,SE,140,0.0,2.0,87,0.00,,,0.00,VWS V14.01,2013-01-18 10:23:00,
2013-01-18 04:28:00,27.8,24.4,30.47,South,176,0.0,2.0,87,0.00,,,0.00,VWS V14.01,2013-01-18 10:28:00,
2013-01-18 04:33:00,27.8,24.4,30.47,SSE,155,0.0,2.0,87,0.00,,,0.00,VWS V14.01,2013-01-18 10:33:00,
2013-01-18 04:38:00,27.8,24.2,30.47,SSE,155,0.0,2.0,86,0.00,,,0.00,VWS V14.01,2013-01-18 10:38:00,
2013-01-18 04:43:00,27.7,24.3,30.47,SSE,150,0.0,2.0,87,0.00,,,0.00,VWS V14.01,2013-01-18 10:43:00,
2013-01-18 04:48:00,27.6,24.2,30.46,SSE,149,0.0,2.0,87,0.00,,,0.00,VWS V14.01,2013-01-18 10:48:00,
2013-01-18 04:53:00,27.4,24.0,30.46,SSE,150,0.0,2.0,87,0.00,,,0.00,VWS V14.01,2013-01-18 10:53:00,
2013-01-18 04:58:00,27.3,24.0,30.46,SSE,148,0.0,2.0,87,0.00,,,0.00,VWS V14.01,2013-01-18 10:58:00,
2013-01-18 05:00:00,26.6,23.5,30.45,SSE,159,0.0,2.0,88,0.00,,,0.00,VWS V14.01,2013-01-18 11:00:00,
2013-01-18 05:03:00,27.1,23.8,30.46,SSE,148,0.0,2.0,87,0.00,,,0.00,VWS V14.01,2013-01-18 11:03:00,
2013-01-18 05:08:00,27.1,23.8,30.46,SSE,148,0.0,2.0,87,0.00,,,0.00,VWS V14.01,2013-01-18 11:08:00,
2013-01-18 05:13:00,26.9,23.6,30.46,SSE,148,0.0,2.0,87,0.00,,,0.00,VWS V14.01,2013-01-18 11:13:00,
2013-01-18 05:18:00,26.8,23.5,30.46,SSE,148,0.0,2.0,87,0.00,,,0.00,VWS V14.01,2013-01-18 11:18:00,
2013-01-18 05:23:00,26.6,23.5,30.46,SSE,148,0.0,2.0,88,0.00,,,0.00,VWS V14.01,2013-01-18 11:23:00,
2013-01-18 05:28:00,26.3,23.2,30.46,SSE,148,0.0,2.0,88,0.00,,,0.00,VWS V14.01,2013-01-18 11:28:00,
2013-01-18 05:33:00,26.3,23.5,30.46,SSE,150,0.0,2.0,89,0.00,,,0.00,VWS V14.01,2013-01-18 11:33:00,
2013-01-18 05:38:00,26.2,23.4,30.46,SSE,148,0.0,2.0,89,0.00,,,0.00,VWS V14.01,2013-01-18 11:38:00,
2013-01-18 05:43:00,26.3,23.5,30.45,SSE,153,0.0,2.0,89,0.00,,,0.00,VWS V14.01,2013-01-18 11:43:00,
2013-01-18 05:48:00,26.4,23.6,30.45,SSE,152,0.0,2.0,89,0.00,,,0.00,VWS V14.01,2013-01-18 11:48:00,
2013-01-18 05:53:00,26.5,23.4,30.45,SSE,152,0.0,2.0,88,0.00,,,0.00,VWS V14.01,2013-01-18 11:53:00,
2013-01-18 05:58:00,26.6,23.5,30.45,SSE,159,0.0,2.0,88,0.00,,,0.00,VWS V14.01,2013-01-18 11:58:00,
2013-01-18 06:00:00,26.6,23.5,30.45,SSE,159,0.0,2.0,88,0.00,,,0.00,VWS V15.00,2013-01-18 12:00:00,
2013-01-18 06:03:00,26.6,23.5,30.45,SSE,159,0.0,0.0,88,0.00,,,0.00,VWS V14.01,2013-01-18 12:03:00,
2013-01-18 06:08:00,26.6,23.5,30.45,South,169,0.0,0.0,88,0.00,,,0.00,VWS V14.01,2013-01-18 12:08:00,
2013-01-18 06:13:00,26.6,23.5,30.45,SSE,158,0.0,1.0,88,0.00,,,0.00,VWS V14.01,2013-01-18 12:13:00,
2013-01-18 06:18:00,26.7,23.6,30.45,SSE,165,0.0,1.0,88,0.00,,,0.00,VWS V14.01,2013-01-18 12:18:00,
2013-01-18 06:23:00,26.6,23.3,30.45,SSE,155,0.0,1.0,87,0.00,,,0.00,VWS V14.01,2013-01-18 12:23:00,
2013-01-18 06:28:00,26.6,23.3,30.44,SSE,155,0.0,1.0,87,0.00,,,0.00,VWS V14.01,2013-01-18 12:28:00,
2013-01-18 06:33:00,26.6,23.5,30.44,SSE,149,0.0,1.0,88,0.00,,,0.00,VWS V14.01,2013-01-18 12:33:00,
2013-01-18 06:38:00,26.6,23.3,30.44,SE,146,0.0,1.0,87,0.00,,,0.00,VWS V14.01,2013-01-18 12:38:00,
2013-01-18 06:43:00,26.6,23.3,30.44,SSE,168,0.0,1.0,87,0.00,,,0.00,VWS V14.01,2013-01-18 12:43:00,
2013-01-18 06:48:00,26.6,23.3,30.44,SSE,165,0.0,1.0,87,0.00,,,0.00,VWS V14.01,2013-01-18 12:48:00,
2013-01-18 06:53:00,26.6,23.5,30.44,SE,146,0.0,1.0,88,0.00,,,0.00,VWS V14.01,2013-01-18 12:53:00,
2013-01-18 06:58:00,26.7,23.4,30.44,SSE,156,0.0,1.0,87,0.00,,,0.00,VWS V14.01,2013-01-18 12:58:00,
2013-01-18 07:00:00,28.5,24.3,30.43,SSE,147,1.5,3.0,84,0.00,,,0.00,VWS V14.01,2013-01-18 13:00:00,
2013-01-18 07:03:00,26.7,23.4,30.44,SSE,158,0.0,1.0,87,0.00,,,0.00,VWS V14.01,2013-01-18 13:03:00,
2013-01-18 07:08:00,26.9,23.6,30.43,SSE,166,0.0,1.0,87,0.00,,,0.00,VWS V14.01,2013-01-18 13:08:00,
2013-01-18 07:13:00,27.1,23.8,30.43,SE,146,1.5,1.5,87,0.00,,,0.00,VWS V14.01,2013-01-18 13:13:00,
2013-01-18 07:18:00,27.2,23.6,30.43,SSE,153,1.5,2.0,86,0.00,,,0.00,VWS V14.01,2013-01-18 13:18:00,
2013-01-18 07:23:00,27.4,23.8,30.43,SSE,162,0.0,3.0,86,0.00,,,0.00,VWS V14.01,2013-01-18 13:23:00,
2013-01-18 07:28:00,27.5,23.9,30.43,SSE,149,1.5,3.0,86,0.00,,,0.00,VWS V14.01,2013-01-18 13:28:00,
2013-01-18 07:33:00,27.6,24.0,30.43,SSE,150,0.0,3.0,86,0.00,,,0.00,VWS V14.01,2013-01-18 13:33:00,
2013-01-18 07:38:00,27.6,23.7,30.43,SSE,155,0.0,3.0,85,0.00,,,0.00,VWS V14.01,2013-01-18 13:38:00,
2013-01-18 07:43:00,27.7,23.8,30.43,SSE,150,0.0,3.0,85,0.00,,,0.00,VWS V14.01,2013-01-18 13:43:00,
2013-01-18 07:48:00,27.8,23.9,30.43,South,170,0.0,3.0,85,0.00,,,0.00,VWS V14.01,2013-01-18 13:48:00,
2013-01-18 07:53:00,28.0,24.1,30.43,SSE,152,3.0,3.0,85,0.00,,,0.00,VWS V14.01,2013-01-18 13:53:00,
2013-01-18 07:58:00,28.3,24.1,30.43,South,180,4.5,4.5,84,0.00,,,0.00,VWS V14.01,2013-01-18 13:58:00,
2013-01-18 08:00:00,28.5,24.3,30.43,SSE,147,1.5,3.0,84,0.00,,,0.00,VWS V15.00,2013-01-18 14:00:00,
2013-01-18 08:03:00,28.8,24.6,30.43,SSE,159,0.0,2.0,84,0.00,,,0.00,VWS V14.01,2013-01-18 14:03:00,
2013-01-18 08:08:00,29.2,24.7,30.43,ESE,112,1.5,3.0,83,0.00,,,0.00,VWS V14.01,2013-01-18 14:08:00,
2013-01-18 08:13:00,29.7,24.9,30.43,SE,140,0.0,3.0,82,0.00,,,0.00,VWS V14.01,2013-01-18 14:13:00,
2013-01-18 08:18:00,30.1,25.3,30.43,SE,135,1.5,3.0,82,0.00,,,0.00,VWS V14.01,2013-01-18 14:18:00,
2013-01-18 08:23:00,30.6,25.5,30.43,SSE,158,1.5,3.0,81,0.00,,,0.00,VWS V14.01,2013-01-18 14:23:00,
2013-01-18 08:28:00,31.2,25.8,30.43,SE,146,0.0,4.0,80,0.00,,,0.00,VWS V14.01,2013-01-18 14:28:00,
2013-01-18 08:33:00,31.8,26.0,30.43,South,188,1.5,4.0,79,0.00,,,0.00,VWS V14.01,2013-01-18 14:33:00,
2013-01-18 08:38:00,32.5,26.4,30.43,SSW,198,9.0,9.0,78,0.00,,,0.00,VWS V14.01,2013-01-18 14:38:00,
2013-01-18 08:43:00,33.3,26.9,30.43,ESE,118,0.0,6.0,77,0.00,,,0.00,VWS V14.01,2013-01-18 14:43:00,
2013-01-18 08:48:00,33.8,27.0,30.44,South,170,1.5,6.0,76,0.00,,,0.00,VWS V14.01,2013-01-18 14:48:00,
2013-01-18 08:53:00,34.3,26.9,30.44,South,170,6.0,7.0,74,0.00,,,0.00,VWS V14.01,2013-01-18 14:53:00,
2013-01-18 08:58:00,34.9,27.5,30.44,South,177,1.5,7.0,74,0.00,,,0.00,VWS V14.01,2013-01-18 14:58:00,
2013-01-18 09:00:00,44.3,31.3,30.44,SSE,159,1.5,7.0,60,0.00,,,0.00,VWS V14.01,2013-01-18 15:00:00,
2013-01-18 09:03:00,35.9,28.1,30.44,South,187,3.0,7.0,73,0.00,,,0.00,VWS V14.01,2013-01-18 15:03:00,
2013-01-18 09:08:00,37.2,28.7,30.44,SW,217,4.5,7.0,71,0.00,,,0.00,VWS V14.01,2013-01-18 15:08:00,
2013-01-18 09:13:00,38.3,29.0,30.44,South,177,1.5,7.0,69,0.00,,,0.00,VWS V14.01,2013-01-18 15:13:00,
2013-01-18 09:18:00,39.2,28.8,30.43,SSE,158,3.0,7.0,66,0.00,,,0.00,VWS V14.01,2013-01-18 15:18:00,
2013-01-18 09:23:00,39.7,28.9,30.44,South,191,7.5,7.5,65,0.00,,,0.00,VWS V14.01,2013-01-18 15:23:00,
2013-01-18 09:28:00,40.4,29.6,30.44,South,184,3.0,7.0,65,0.00,,,0.00,VWS V14.01,2013-01-18 15:28:00,
2013-01-18 09:33:00,40.9,29.7,30.44,SSW,197,4.5,7.0,64,0.00,,,0.00,VWS V14.01,2013-01-18 15:33:00,
2013-01-18 09:38:00,41.4,29.8,30.44,SW,225,3.0,7.0,63,0.00,,,0.00,VWS V14.01,2013-01-18 15:38:00,
2013-01-18 09:43:00,42.0,30.3,30.44,South,170,1.5,7.0,63,0.00,,,0.00,VWS V14.01,2013-01-18 15:43:00,
2013-01-18 09:48:00,42.7,30.6,30.44,SSW,207,0.0,7.0,62,0.00,,,0.00,VWS V14.01,2013-01-18 15:48:00,
2013-01-18 09:53:00,43.5,30.5,30.44,SSE,148,4.5,7.0,60,0.00,,,0.00,VWS V14.01,2013-01-18 15:53:00,
2013-01-18 09:58:00,44.0,30.6,30.44,WSW,240,0.0,7.0,59,0.00,,,0.00,VWS V14.01,2013-01-18 15:58:00,
2013-01-18 10:00:00,44.3,31.3,30.44,SSE,159,1.5,7.0,60,0.00,,,0.00,VWS V15.00,2013-01-18 16:00:00,
2013-01-18 10:03:00,44.7,30.9,30.44,SSE,167,1.5,4.0,58,0.00,,,0.00,VWS V14.01,2013-01-18 16:03:00,
2013-01-18 10:08:00,45.2,30.9,30.44,South,190,7.5,7.5,57,0.00,,,0.00,VWS V14.01,2013-01-18 16:08:00,
2013-01-18 10:13:00,45.7,30.5,30.44,SW,227,4.5,8.0,55,0.00,,,0.00,VWS V14.01,2013-01-18 16:13:00,
2013-01-18 10:18:00,46.2,30.9,30.44,South,179,4.5,8.0,55,0.00,,,0.00,VWS V14.01,2013-01-18 16:18:00,
2013-01-18 10:23:00,46.7,30.5,30.44,SSW,203,6.0,9.0,53,0.00,,,0.00,VWS V14.01,2013-01-18 16:23:00,
2013-01-18 10:28:00,47.4,30.7,30.44,South,180,13.5,13.5,52,0.00,,,0.00,VWS V14.01,2013-01-18 16:28:00,
2013-01-18 10:33:00,48.1,30.8,30.43,SSW,204,4.5,11.0,51,0.00,,,0.00,VWS V14.01,2013-01-18 16:33:00,
2013-01-18 10:38:00,48.5,30.7,30.43,SW,235,4.5,11.0,50,0.00,,,0.00,VWS V14.01,2013-01-18 16:38:00,
2013-01-18 10:43:00,48.6,29.8,30.43,SSW,193,7.5,11.0,48,0.00,,,0.00,VWS V14.01,2013-01-18 16:43:00,
2013-01-18 10:48:00,49.1,30.3,30.42,SSW,204,4.5,11.0,48,0.00,,,0.00,VWS V14.01,2013-01-18 16:48:00,
2013-01-18 10:53:00,49.4,29.5,30.42,SSW,211,10.5,11.0,46,0.00,,,0.00,VWS V14.01,2013-01-18 16:53:00,
2013-01-18 10:58:00,49.5,29.1,30.42,SSW,198,6.0,11.0,45,0.00,,,0.00,VWS V14.01,2013-01-18 16:58:00,
2013-01-18 11:00:00,51.8,29.5,30.39,SSW,201,4.5,12.0,42,0.00,,,0.00,VWS V14.01,2013-01-18 17:00:00,
2013-01-18 11:03:00,49.9,29.4,30.42,SW,221,4.5,11.0,45,0.00,,,0.00,VWS V14.01,2013-01-18 17:03:00,
2013-01-18 11:08:00,50.3,29.2,30.42,SW,222,9.0,11.0,44,0.00,,,0.00,VWS V14.01,2013-01-18 17:08:00,
2013-01-18 11:13:00,50.5,29.4,30.42,South,189,7.5,11.0,44,0.00,,,0.00,VWS V14.01,2013-01-18 17:13:00,
2013-01-18 11:18:00,50.5,29.4,30.41,South,189,4.5,11.0,44,0.00,,,0.00,VWS V14.01,2013-01-18 17:18:00,
2013-01-18 11:23:00,50.7,29.6,30.41,SSW,208,10.5,11.0,44,0.00,,,0.00,VWS V14.01,2013-01-18 17:23:00,
2013-01-18 11:28:00,50.9,29.8,30.41,SSW,208,6.0,11.0,44,0.00,,,0.00,VWS V14.01,2013-01-18 17:28:00,
2013-01-18 11:33:00,51.1,30.0,30.41,SSW,208,6.0,11.0,44,0.00,,,0.00,VWS V14.01,2013-01-18 17:33:00,
2013-01-18 11:38:00,51.2,29.5,30.40,SSW,205,4.5,11.0,43,0.00,,,0.00,VWS V14.01,2013-01-18 17:38:00,
2013-01-18 11:43:00,51.5,29.8,30.40,SW,226,9.0,11.0,43,0.00,,,0.00,VWS V14.01,2013-01-18 17:43:00,
2013-01-18 11:48:00,51.8,28.9,30.40,SSW,206,6.0,11.0,41,0.00,,,0.00,VWS V14.01,2013-01-18 17:48:00,
2013-01-18 11:53:00,51.8,29.5,30.39,SSE,147,3.0,11.0,42,0.00,,,0.00,VWS V14.01,2013-01-18 17:53:00,
2013-01-18 11:58:00,51.7,29.9,30.39,SW,236,7.5,12.0,43,0.00,,,0.00,VWS V14.01,2013-01-18 17:58:00,
2013-01-18 12:00:00,51.8,29.5,30.39,SSW,201,4.5,12.0,42,0.00,,,0.00,VWS V15.00,2013-01-18 18:00:00,
2013-01-18 12:03:00,52.0,29.0,30.38,SW,221,9.0,10.0,41,0.00,,,0.00,VWS V14.01,2013-01-18 18:03:00,
2013-01-18 12:08:00,52.1,29.7,30.38,SW,214,4.5,10.0,42,0.00,,,0.00,VWS V14.01,2013-01-18 18:08:00,
2013-01-18 12:13:00,52.6,29.6,30.37,SSW,198,9.0,11.0,41,0.00,,,0.00,VWS V14.01,2013-01-18 18:13:00,
2013-01-18 12:18:00,52.8,29.8,30.36,SSW,204,1.5,11.0,41,0.00,,,0.00,VWS V14.01,2013-01-18 18:18:00,
2013-01-18 12:23:00,53.2,30.1,30.36,SSW,204,1.5,11.0,41,0.00,,,0.00,VWS V14.01,2013-01-18 18:23:00,
2013-01-18 12:28:00,53.3,30.2,30.36,WSW,248,3.0,11.0,41,0.00,,,0.00,VWS V14.01,2013-01-18 18:28:00,
2013-01-18 12:33:00,53.3,30.2,30.35,WSW,238,4.5,11.0,41,0.00,,,0.00,VWS V14.01,2013-01-18 18:33:00,
2013-01-18 12:38:00,53.3,29.0,30.35,South,186,13.5,13.5,39,0.00,,,0.00,VWS V14.01,2013-01-18 18:38:00,
2013-01-18 12:43:00,53.6,29.3,30.35,SSW,206,10.5,12.0,39,0.00,,,0.00,VWS V14.01,2013-01-18 18:43:00,
2013-01-18 12:48:00,53.4,28.5,30.34,SE,139,15.0,15.0,38,0.00,,,0.00,VWS V14.01,2013-01-18 18:48:00,
2013-01-18 12:53:00,53.6,29.3,30.34,South,174,4.5,12.0,39,0.00,,,0.00,VWS V14.01,2013-01-18 18:53:00,
2013-01-18 12:58:00,54.0,29.6,30.34,SSW,212,1.5,12.0,39,0.00,,,0.00,VWS V14.01,2013-01-18 18:58:00,
2013-01-18 13:00:00,55.3,26.7,30.31,SSW,205,10.5,15.0,33,0.00,,,0.00,VWS V14.01,2013-01-18 19:00:00,
2013-01-18 13:03:00,53.8,28.8,30.33,SSW,194,4.5,12.0,38,0.00,,,0.00,VWS V14.01,2013-01-18 19:03:00,
2013-01-18 13:08:00,53.7,28.7,30.33,SW,226,10.5,12.0,38,0.00,,,0.00,VWS V14.01,2013-01-18 19:08:00,
2013-01-18 13:13:00,54.0,29.0,30.33,SW,222,7.5,12.0,38,0.00,,,0.00,VWS V14.01,2013-01-18 19:13:00,
2013-01-18 13:18:00,54.2,29.2,30.33,SSW,194,6.0,12.0,38,0.00,,,0.00,VWS V14.01,2013-01-18 19:18:00,
2013-01-18 13:23:00,54.3,29.2,30.32,SW,214,6.0,12.0,38,0.00,,,0.00,VWS V14.01,2013-01-18 19:23:00,
2013-01-18 13:28:00,54.4,28.7,30.32,South,179,4.5,15.0,37,0.00,,,0.00,VWS V14.01,2013-01-18 19:28:00,
2013-01-18 13:33:00,54.5,28.8,30.32,SW,228,4.5,15.0,37,0.00,,,0.00,VWS V14.01,2013-01-18 19:33:00,
2013-01-18 13:38:00,54.5,28.1,30.32,SW,222,10.5,15.0,36,0.00,,,0.00,VWS V14.01,2013-01-18 19:38:00,
2013-01-18 13:43:00,54.5,28.1,30.31,SSW,197,12.0,15.0,36,0.00,,,0.00,VWS V14.01,2013-01-18 19:43:00,
2013-01-18 13:48:00,54.8,27.7,30.31,South,184,6.0,15.0,35,0.00,,,0.00,VWS V14.01,2013-01-18 19:48:00,
2013-01-18 13:53:00,55.0,27.9,30.31,SSW,205,4.5,15.0,35,0.00,,,0.00,VWS V14.01,2013-01-18 19:53:00,
2013-01-18 13:58:00,55.2,27.3,30.31,South,172,10.5,15.0,34,0.00,,,0.00,VWS V14.01,2013-01-18 19:58:00,
2013-01-18 14:00:00,55.3,26.7,30.31,SSW,205,10.5,15.0,33,0.00,,,0.00,VWS V15.00,2013-01-18 20:00:00,
2013-01-18 14:03:00,55.4,26.0,30.31,SSW,201,7.5,10.0,32,0.00,,,0.00,VWS V14.01,2013-01-18 20:03:00,
2013-01-18 14:08:00,55.3,26.7,30.30,WSW,248,4.5,10.0,33,0.00,,,0.00,VWS V14.01,2013-01-18 20:08:00,
2013-01-18 14:13:00,55.5,26.1,30.31,SSW,198,15.0,15.0,32,0.00,,,0.00,VWS V14.01,2013-01-18 20:13:00,
2013-01-18 14:18:00,55.8,25.6,30.30,South,182,12.0,12.0,31,0.00,,,0.00,VWS V14.01,2013-01-18 20:18:00,
2013-01-18 14:23:00,55.7,26.3,30.30,SSE,160,9.0,12.0,32,0.00,,,0.00,VWS V14.01,2013-01-18 20:23:00,
2013-01-18 14:28:00,55.7,26.3,30.30,SSW,205,6.0,12.0,32,0.00,,,0.00,VWS V14.01,2013-01-18 20:28:00,
2013-01-18 14:33:00,55.6,26.2,30.30,South,180,9.0,14.0,32,0.00,,,0.00,VWS V14.01,2013-01-18 20:33:00,
2013-01-18 14:38:00,55.8,25.6,30.29,SSW,205,9.0,14.0,31,0.00,,,0.00,VWS V14.01,2013-01-18 20:38:00,
2013-01-18 14:43:00,55.7,25.5,30.29,WSW,240,3.0,14.0,31,0.00,,,0.00,VWS V14.01,2013-01-18 20:43:00,
2013-01-18 14:48:00,56.0,26.6,30.29,SSW,195,7.5,14.0,32,0.00,,,0.00,VWS V14.01,2013-01-18 20:48:00,
2013-01-18 14:53:00,56.1,26.7,30.29,WSW,238,12.0,14.0,32,0.00,,,0.00,VWS V14.01,2013-01-18 20:53:00,
2013-01-18 14:58:00,56.1,27.4,30.29,WSW,253,3.0,14.0,33,0.00,,,0.00,VWS V14.01,2013-01-18 20:58:00,
2013-01-18 15:00:00,53.9,26.2,30.28,SW,226,6.0,14.0,34,0.00,,,0.00,VWS V14.01,2013-01-18 21:00:00,
2013-01-18 15:03:00,56.3,26.8,30.28,West,262,6.0,14.0,32,0.00,,,0.00,VWS V14.01,2013-01-18 21:03:00,
2013-01-18 15:08:00,56.0,25.8,30.28,SE,138,6.0,14.0,31,0.00,,,0.00,VWS V14.01,2013-01-18 21:08:00,
2013-01-18 15:13:00,55.8,25.6,30.28,SSW,203,3.0,14.0,31,0.00,,,0.00,VWS V14.01,2013-01-18 21:13:00,
2013-01-18 15:18:00,55.7,26.3,30.28,SSW,210,7.5,14.0,32,0.00,,,0.00,VWS V14.01,2013-01-18 21:18:00,
2013-01-18 15:23:00,55.7,26.3,30.28,SSE,158,15.0,15.0,32,0.00,,,0.00,VWS V14.01,2013-01-18 21:23:00,
2013-01-18 15:28:00,55.5,26.1,30.28,South,177,4.5,14.0,32,0.00,,,0.00,VWS V14.01,2013-01-18 21:28:00,
2013-01-18 15:33:00,55.3,26.0,30.28,SSW,198,6.0,14.0,32,0.00,,,0.00,VWS V14.01,2013-01-18 21:33:00,
2013-01-18 15:38:00,55.1,25.8,30.28,SSW,212,6.0,14.0,32,0.00,,,0.00,VWS V14.01,2013-01-18 21:38:00,
2013-01-18 15:43:00,54.7,26.2,30.28,South,184,7.5,14.0,33,0.00,,,0.00,VWS V14.01,2013-01-18 21:43:00,
2013-01-18 15:48:00,54.3,26.5,30.28,South,190,12.0,14.0,34,0.00,,,0.00,VWS V14.01,2013-01-18 21:48:00,
2013-01-18 15:53:00,54.1,26.4,30.27,SSW,198,7.5,14.0,34,0.00,,,0.00,VWS V14.01,2013-01-18 21:53:00,
2013-01-18 15:58:00,53.9,26.2,30.27,SSW,205,4.5,14.0,34,0.00,,,0.00,VWS V14.01,2013-01-18 21:58:00,
2013-01-18 16:00:00,53.9,26.2,30.28,SW,226,6.0,14.0,34,0.00,,,0.00,VWS V15.00,2013-01-18 22:00:00,
2013-01-18 16:03:00,53.6,25.9,30.28,South,172,15.0,15.0,34,0.00,,,0.00,VWS V14.01,2013-01-18 22:03:00,
2013-01-18 16:08:00,53.6,25.9,30.27,South,171,15.0,15.0,34,0.00,,,0.00,VWS V14.01,2013-01-18 22:08:00,
2013-01-18 16:13:00,53.4,25.8,30.27,WSW,243,3.0,12.0,34,0.00,,,0.00,VWS V14.01,2013-01-18 22:13:00,
2013-01-18 16:18:00,53.3,26.4,30.27,SW,214,4.5,12.0,35,0.00,,,0.00,VWS V14.01,2013-01-18 22:18:00,
2013-01-18 16:23:00,53.2,27.0,30.27,West,276,1.5,12.0,36,0.00,,,0.00,VWS V14.01,2013-01-18 22:23:00,
2013-01-18 16:28:00,52.9,26.7,30.27,South,172,9.0,12.0,36,0.00,,,0.00,VWS V14.01,2013-01-18 22:28:00,
2013-01-18 16:33:00,52.6,26.4,30.27,SW,233,4.5,12.0,36,0.00,,,0.00,VWS V14.01,2013-01-18 22:33:00,
2013-01-18 16:38:00,52.4,26.9,30.27,South,174,3.0,12.0,37,0.00,,,0.00,VWS V14.01,2013-01-18 22:38:00,
2013-01-18 16:43:00,52.1,26.6,30.27,SW,218,3.0,12.0,37,0.00,,,0.00,VWS V14.01,2013-01-18 22:43:00,
2013-01-18 16:48:00,51.8,27.0,30.27,WSW,243,10.5,12.0,38,0.00,,,0.00,VWS V14.01,2013-01-18 22:48:00,
2013-01-18 16:52:00,51.6,26.8,30.27,SSW,210,6.0,12.0,38,0.00,,,0.00,VWS V14.01,2013-01-18 22:52:00,
2013-01-18 16:57:00,51.5,26.8,30.26,SSW,207,7.5,12.0,38,0.00,,,0.00,VWS V14.01,2013-01-18 22:57:00,
2013-01-18 17:00:00,47.9,27.0,30.26,South,184,0.0,12.0,44,0.00,,,0.00,VWS V14.01,2013-01-18 23:00:00,
2013-01-18 17:02:00,51.4,27.3,30.26,SSW,208,7.5,12.0,39,0.00,,,0.00,VWS V14.01,2013-01-18 23:02:00,
2013-01-18 17:07:00,51.3,27.2,30.26,SW,217,6.0,12.0,39,0.00,,,0.00,VWS V14.01,2013-01-18 23:07:00,
2013-01-18 17:12:00,51.0,26.9,30.26,SW,226,6.0,12.0,39,0.00,,,0.00,VWS V14.01,2013-01-18 23:12:00,
2013-01-18 17:18:00,50.6,27.2,30.26,SW,235,6.0,12.0,40,0.00,,,0.00,VWS V14.01,2013-01-18 23:18:00,
2013-01-18 17:23:00,50.2,27.4,30.26,SSW,204,6.0,12.0,41,0.00,,,0.00,VWS V14.01,2013-01-18 23:23:00,
2013-01-18 17:28:00,49.8,27.1,30.26,South,182,1.5,12.0,41,0.00,,,0.00,VWS V14.01,2013-01-18 23:28:00,
2013-01-18 17:33:00,49.5,27.4,30.26,SSW,193,3.0,12.0,42,0.00,,,0.00,VWS V14.01,2013-01-18 23:33:00,
2013-01-18 17:38:00,49.3,27.2,30.26,South,189,1.5,12.0,42,0.00,,,0.00,VWS V14.01,2013-01-18 23:38:00,
2013-01-18 17:42:00,49.0,26.9,30.26,South,191,1.5,12.0,42,0.00,,,0.00,VWS V14.01,2013-01-18 23:42:00,
2013-01-18 17:48:00,48.7,27.2,30.26,South,173,0.0,12.0,43,0.00,,,0.00,VWS V14.01,2013-01-18 23:48:00,
2013-01-18 17:52:00,48.4,27.5,30.26,SSW,204,1.5,12.0,44,0.00,,,0.00,VWS V14.01,2013-01-18 23:52:00,
2013-01-18 17:57:00,48.1,27.2,30.26,South,190,0.0,12.0,44,0.00,,,0.00,VWS V14.01,2013-01-18 23:57:00,
2013-01-18 18:00:00,47.9,27.0,30.26,South,184,0.0,12.0,44,0.00,,,0.00,VWS V15.00,2013-01-19 00:00:00,
2013-01-18 18:02:00,47.8,27.5,30.26,SSE,159,3.0,3.0,45,0.00,,,0.00,VWS V14.01,2013-01-19 00:02:00,
2013-01-18 18:07:00,47.5,27.8,30.25,SSE,159,0.0,4.0,46,0.00,,,0.00,VWS V14.01,2013-01-19 00:07:00,
2013-01-18 18:12:00,47.4,27.7,30.25,South,181,1.5,4.0,46,0.00,,,0.00,VWS V14.01,2013-01-19 00:12:00,
2013-01-18 18:17:00,47.1,27.9,30.25,SSE,155,3.0,4.0,47,0.00,,,0.00,VWS V14.01,2013-01-19 00:17:00,
2013-01-18 18:22:00,47.1,28.4,30.25,South,190,9.0,9.0,48,0.00,,,0.00,VWS V14.01,2013-01-19 00:22:00,
2013-01-18 18:27:00,47.2,28.5,30.25,ESE,113,6.0,8.0,48,0.00,,,0.00,VWS V14.01,2013-01-19 00:27:00,
2013-01-18 18:32:00,47.3,28.6,30.25,SSW,200,1.5,9.0,48,0.00,,,0.00,VWS V14.01,2013-01-19 00:32:00,
2013-01-18 18:37:00,47.3,28.6,30.25,SSW,197,3.0,9.0,48,0.00,,,0.00,VWS V14.01,2013-01-19 00:37:00,
2013-01-18 18:42:00,47.2,29.0,30.24,SSW,201,1.5,9.0,49,0.00,,,0.00,VWS V14.01,2013-01-19 00:42:00,
2013-01-18 18:47:00,47.0,28.9,30.24,SSE,166,6.0,9.0,49,0.00,,,0.00,VWS V14.01,2013-01-19 00:47:00,
2013-01-18 18:52:00,46.9,29.2,30.24,South,172,6.0,9.0,50,0.00,,,0.00,VWS V14.01,2013-01-19 00:52:00,
2013-01-18 18:57:00,46.9,29.2,30.24,South,169,6.0,9.0,50,0.00,,,0.00,VWS V14.01,2013-01-19 00:57:00,
2013-01-18 19:00:00,45.6,29.9,30.23,SSE,164,1.5,9.0,54,0.00,,,0.00,VWS V14.01,2013-01-19 01:00:00,
2013-01-18 19:02:00,47.0,29.3,30.23,SSE,161,7.5,9.0,50,0.00,,,0.00,VWS V14.01,2013-01-19 01:02:00,
2013-01-18 19:07:00,47.0,29.3,30.23,SSW,203,4.5,9.0,50,0.00,,,0.00,VWS V14.01,2013-01-19 01:07:00,
2013-01-18 19:12:00,46.9,29.2,30.23,South,169,1.5,9.0,50,0.00,,,0.00,VWS V14.01,2013-01-19 01:12:00,
2013-01-18 19:17:00,46.8,29.6,30.23,SSE,164,7.5,9.0,51,0.00,,,0.00,VWS V14.01,2013-01-19 01:17:00,
2013-01-18 19:22:00,46.8,29.6,30.23,SSE,160,4.5,9.0,51,0.00,,,0.00,VWS V14.01,2013-01-19 01:22:00,
2013-01-18 19:27:00,46.6,29.5,30.23,South,188,9.0,9.0,51,0.00,,,0.00,VWS V14.01,2013-01-19 01:27:00,
2013-01-18 19:32:00,46.4,29.8,30.23,South,181,3.0,9.0,52,0.00,,,0.00,VWS V14.01,2013-01-19 01:32:00,
2013-01-18 19:37:00,46.2,29.6,30.23,SW,218,4.5,9.0,52,0.00,,,0.00,VWS V14.01,2013-01-19 01:37:00,
2013-01-18 19:42:00,45.9,29.3,30.24,South,174,3.0,9.0,52,0.00,,,0.00,VWS V14.01,2013-01-19 01:42:00,
2013-01-18 19:47:00,45.7,29.6,30.24,SSE,150,6.0,9.0,53,0.00,,,0.00,VWS V14.01,2013-01-19 01:47:00,
2013-01-18 19:52:00,45.6,29.5,30.23,SSW,198,1.5,9.0,53,0.00,,,0.00,VWS V14.01,2013-01-19 01:52:00,
2013-01-18 19:57:00,45.5,29.8,30.23,SSE,154,3.0,9.0,54,0.00,,,0.00,VWS V14.01,2013-01-19 01:57:00,
2013-01-18 20:00:00,45.6,29.9,30.23,SSE,164,1.5,9.0,54,0.00,,,0.00,VWS V15.00,2013-01-19 02:00:00,
2013-01-18 20:02:00,45.7,29.6,30.23,SSE,165,4.5,7.0,53,0.00,,,0.00,VWS V14.01,2013-01-19 02:02:00,
2013-01-18 20:07:00,45.8,29.7,30.23,South,187,6.0,7.0,53,0.00,,,0.00,VWS V14.01,2013-01-19 02:07:00,
2013-01-18 20:12:00,46.0,29.4,30.23,SE,146,7.5,8.0,52,0.00,,,0.00,VWS V14.01,2013-01-19 02:12:00,
2013-01-18 20:17:00,46.1,29.5,30.23,South,183,6.0,8.0,52,0.00,,,0.00,VWS V14.01,2013-01-19 02:17:00,
2013-01-18 20:22:00,46.1,29.5,30.23,SSW,193,6.0,8.0,52,0.00,,,0.00,VWS V14.01,2013-01-19 02:22:00,
2013-01-18 20:27:00,46.0,28.9,30.23,South,191,7.5,8.0,51,0.00,,,0.00,VWS V14.01,2013-01-19 02:27:00,
2013-01-18 20:32:00,45.8,28.7,30.23,SSE,158,4.5,8.0,51,0.00,,,0.00,VWS V14.01,2013-01-19 02:32:00,
2013-01-18 20:37:00,45.7,28.6,30.23,SW,214,0.0,8.0,51,0.00,,,0.00,VWS V14.01,2013-01-19 02:37:00,
2013-01-18 20:42:00,45.5,28.0,30.23,SW,224,3.0,8.0,50,0.00,,,0.00,VWS V14.01,2013-01-19 02:42:00,
2013-01-18 20:47:00,45.4,27.4,30.23,SSE,153,0.0,8.0,49,0.00,,,0.00,VWS V14.01,2013-01-19 02:47:00,
2013-01-18 20:52:00,45.4,27.4,30.22,SSE,156,3.0,8.0,49,0.00,,,0.00,VWS V14.01,2013-01-19 02:52:00,
2013-01-18 20:57:00,45.5,27.0,30.22,SW,233,3.0,8.0,48,0.00,,,0.00,VWS V14.01,2013-01-19 02:57:00,
2013-01-18 21:02:00,45.4,26.9,30.22,WSW,238,0.0,8.0,48,0.00,,,0.00,VWS V14.01,2013-01-19 03:02:00,
2013-01-18 21:07:00,45.3,26.3,30.22,South,184,0.0,8.0,47,0.00,,,0.00,VWS V14.01,2013-01-19 03:07:00,
2013-01-18 21:12:00,45.2,26.2,30.22,SSW,207,3.0,8.0,47,0.00,,,0.00,VWS V14.01,2013-01-19 03:12:00,
2013-01-18 21:17:00,45.2,26.2,30.22,South,190,0.0,8.0,47,0.00,,,0.00,VWS V14.01,2013-01-19 03:17:00,
2013-01-18 21:22:00,45.3,26.3,30.22,SSW,212,1.5,8.0,47,0.00,,,0.00,VWS V14.01,2013-01-19 03:22:00,
2013-01-18 21:27:00,45.2,26.2,30.22,SSW,211,3.0,8.0,47,0.00,,,0.00,VWS V14.01,2013-01-19 03:27:00,
2013-01-18 21:32:00,45.1,26.1,30.22,SW,219,7.5,8.0,47,0.00,,,0.00,VWS V14.01,2013-01-19 03:32:00,
2013-01-18 21:37:00,45.2,25.7,30.22,SSW,208,7.5,8.0,46,0.00,,,0.00,VWS V14.01,2013-01-19 03:37:00,
2013-01-18 21:42:00,45.1,25.6,30.22,SSW,201,3.0,8.0,46,0.00,,,0.00,VWS V14.01,2013-01-19 03:42:00,
2013-01-18 21:47:00,45.0,26.0,30.22,South,175,3.0,8.0,47,0.00,,,0.00,VWS V14.01,2013-01-19 03:47:00,
2013-01-18 21:52:00,44.9,25.4,30.21,SSE,149,4.5,8.0,46,0.00,,,0.00,VWS V14.01,2013-01-19 03:52:00,
2013-01-18 21:57:00,44.8,25.8,30.21,SSE,165,1.5,8.0,47,0.00,,,0.00,VWS V14.01,2013-01-19 03:57:00,
2013-01-18 22:02:00,44.7,25.7,30.21,SSE,150,1.5,8.0,47,0.00,,,0.00,VWS V14.01,2013-01-19 04:02:00,
2013-01-18 22:07:00,44.4,25.5,30.21,SSW,203,1.5,8.0,47,0.00,,,0.00,VWS V14.01,2013-01-19 04:07:00,
2013-01-18 22:12:00,44.2,25.3,30.21,SSW,197,1.5,8.0,47,0.00,,,0.00,VWS V14.01,2013-01-19 04:12:00,
2013-01-18 22:17:00,44.0,25.6,30.21,SSW,195,0.0,8.0,48,0.00,,,0.00,VWS V14.01,2013-01-19 04:17:00,
2013-01-18 22:22:00,43.8,25.4,30.21,South,184,3.0,8.0,48,0.00,,,0.00,VWS V14.01,2013-01-19 04:22:00,
2013-01-18 22:27:00,43.7,25.3,30.20,SW,215,3.0,8.0,48,0.00,,,0.00,VWS V14.01,2013-01-19 04:27:00,
2013-01-18 22:32:00,43.6,25.2,30.20,South,184,3.0,8.0,48,0.00,,,0.00,VWS V14.01,2013-01-19 04:32:00,
2013-01-18 22:37:00,43.5,25.1,30.20,SSE,152,4.5,8.0,48,0.00,,,0.00,VWS V14.01,2013-01-19 04:37:00,
2013-01-18 22:42:00,43.4,25.5,30.20,SSW,201,0.0,8.0,49,0.00,,,0.00,VWS V14.01,2013-01-19 04:42:00,
2013-01-18 22:47:00,43.2,25.4,30.20,South,173,3.0,8.0,49,0.00,,,0.00,VWS V14.01,2013-01-19 04:47:00,
2013-01-18 22:52:00,43.1,25.3,30.20,South,188,1.5,8.0,49,0.00,,,0.00,VWS V14.01,2013-01-19 04:52:00,
2013-01-18 22:57:00,43.0,25.2,30.20,SE,129,1.5,8.0,49,0.00,,,0.00,VWS V14.01,2013-01-19 04:57:00,
2013-01-18 23:00:00,43.0,25.2,30.20,SSE,154,6.0,8.0,49,0.00,,,0.00,VWS V14.01,2013-01-19 05:00:00,
2013-01-18 23:01:00,43.1,25.3,30.20,South,191,3.0,8.0,49,0.00,,,0.00,VWS V14.01,2013-01-19 05:01:00,
2013-01-18 23:02:00,43.1,25.3,30.20,SSW,211,4.5,8.0,49,0.00,,,0.00,VWS V14.01,2013-01-19 05:02:00,
2013-01-18 23:03:00,43.2,25.4,30.20,SSW,201,0.0,8.0,49,0.00,,,0.00,VWS V14.01,2013-01-19 05:03:00,
2013-01-18 23:08:00,43.3,25.4,30.19,SSE,166,1.5,8.0,49,0.00,,,0.00,VWS V14.01,2013-01-19 05:08:00,
2013-01-18 23:13:00,43.3,25.4,30.19,SSE,165,1.5,8.0,49,0.00,,,0.00,VWS V14.01,2013-01-19 05:13:00,
2013-01-18 23:18:00,43.3,25.4,30.19,South,187,0.0,8.0,49,0.00,,,0.00,VWS V14.01,2013-01-19 05:18:00,
2013-01-18 23:23:00,43.0,25.2,30.19,SSW,195,0.0,8.0,49,0.00,,,0.00,VWS V14.01,2013-01-19 05:23:00,
2013-01-18 23:28:00,42.8,25.5,30.19,SSW,210,3.0,8.0,50,0.00,,,0.00,VWS V14.01,2013-01-19 05:28:00,
2013-01-18 23:33:00,42.7,25.4,30.19,South,172,1.5,8.0,50,0.00,,,0.00,VWS V14.01,2013-01-19 05:33:00,
2013-01-18 23:38:00,42.7,25.4,30.19,SW,214,1.5,8.0,50,0.00,,,0.00,VWS V14.01,2013-01-19 05:38:00,
2013-01-18 23:43:00,42.8,25.5,30.19,South,180,4.5,8.0,50,0.00,,,0.00,VWS V14.01,2013-01-19 05:43:00,
2013-01-18 23:48:00,42.7,25.4,30.19,SSE,162,4.5,8.0,50,0.00,,,0.00,VWS V14.01,2013-01-19 05:48:00,
2013-01-18 23:53:00,42.9,25.6,30.19,SSE,158,1.5,8.0,50,0.00,,,0.00,VWS V14.01,2013-01-19 05:53:00,
2013-01-18 23:58:00,42.9,25.6,30.19,South,177,3.0,8.0,50,0.00,,,0.00,VWS V14.01,2013-01-19 05:58:00,